sensor_id;sensor_type;location;lat;lon;timestamp;temperature;humidity
42245;DHT22;27912;51.828;5.688;2022-11-20T00:01:23;-3.40;99.90
42245;DHT22;27912;51.828;5.688;2022-11-20T00:03:52;-3.40;99.90
42245;DHT22;27912;51.828;5.688;2022-11-20T00:06:19;-3.50;99.90
42245;DHT22;27912;51.828;5.688;2022-11-20T00:08:46;-3.50;99.90
42245;DHT22;27912;51.828;5.688;2022-11-20T00:11:15;-3.60;99.90
42245;DHT22;27912;51.828;5.688;2022-11-20T00:13:42;-3.60;99.90
42245;DHT22;27912;51.828;5.688;2022-11-20T00:16:10;-3.70;99.90
42245;DHT22;27912;51.828;5.688;2022-11-20T00:18:37;-3.70;99.90
42245;DHT22;27912;51.828;5.688;2022-11-20T00:21:12;-3.70;99.90
42245;DHT22;27912;51.828;5.688;2022-11-20T00:23:38;-3.80;99.90
42245;DHT22;27912;51.828;5.688;2022-11-20T00:26:12;-3.80;99.90
42245;DHT22;27912;51.828;5.688;2022-11-20T00:28:38;-3.80;99.90
42245;DHT22;27912;51.828;5.688;2022-11-20T00:31:08;-3.80;99.90
42245;DHT22;27912;51.828;5.688;2022-11-20T00:33:34;-3.80;99.90
42245;DHT22;27912;51.828;5.688;2022-11-20T00:36:09;-3.80;99.90
42245;DHT22;27912;51.828;5.688;2022-11-20T00:38:35;-3.80;99.90
42245;DHT22;27912;51.828;5.688;2022-11-20T00:41:03;-3.80;99.90
42245;DHT22;27912;51.828;5.688;2022-11-20T00:43:32;-3.90;99.90
42245;DHT22;27912;51.828;5.688;2022-11-20T00:45:59;-3.90;99.90
42245;DHT22;27912;51.828;5.688;2022-11-20T00:48:25;-3.80;99.90
42245;DHT22;27912;51.828;5.688;2022-11-20T00:50:51;-3.90;99.90
42245;DHT22;27912;51.828;5.688;2022-11-20T00:53:17;-3.90;99.90
42245;DHT22;27912;51.828;5.688;2022-11-20T00:55:49;-3.90;99.90
42245;DHT22;27912;51.828;5.688;2022-11-20T00:58:17;-3.90;99.90
42245;DHT22;27912;51.828;5.688;2022-11-20T01:00:43;-3.90;99.90
42245;DHT22;27912;51.828;5.688;2022-11-20T01:03:09;-4.00;99.90
42245;DHT22;27912;51.828;5.688;2022-11-20T01:05:35;-4.00;99.90
42245;DHT22;27912;51.828;5.688;2022-11-20T01:08:01;-4.00;99.90
42245;DHT22;27912;51.828;5.688;2022-11-20T01:10:27;-4.00;99.90
42245;DHT22;27912;51.828;5.688;2022-11-20T01:12:53;-4.00;99.90
42245;DHT22;27912;51.828;5.688;2022-11-20T01:15:38;-4.00;99.90
42245;DHT22;27912;51.828;5.688;2022-11-20T01:18:05;-4.00;99.90
42245;DHT22;27912;51.828;5.688;2022-11-20T01:20:34;-4.10;99.90
42245;DHT22;27912;51.828;5.688;2022-11-20T01:23:04;-4.10;99.90
42245;DHT22;27912;51.828;5.688;2022-11-20T01:25:30;-4.10;99.90
42245;DHT22;27912;51.828;5.688;2022-11-20T01:27:56;-4.10;99.90
42245;DHT22;27912;51.828;5.688;2022-11-20T01:30:24;-4.20;99.90
42245;DHT22;27912;51.828;5.688;2022-11-20T01:32:50;-4.20;99.90
42245;DHT22;27912;51.828;5.688;2022-11-20T01:35:16;-4.20;99.90
42245;DHT22;27912;51.828;5.688;2022-11-20T01:37:42;-4.20;99.90
42245;DHT22;27912;51.828;5.688;2022-11-20T01:40:11;-4.20;99.90
42245;DHT22;27912;51.828;5.688;2022-11-20T01:42:37;-4.10;99.90
42245;DHT22;27912;51.828;5.688;2022-11-20T01:45:50;-4.10;99.90
42245;DHT22;27912;51.828;5.688;2022-11-20T01:48:21;-4.00;99.90
42245;DHT22;27912;51.828;5.688;2022-11-20T01:50:48;-4.10;99.90
42245;DHT22;27912;51.828;5.688;2022-11-20T01:53:21;-4.00;99.90
42245;DHT22;27912;51.828;5.688;2022-11-20T01:55:56;-4.10;99.90
42245;DHT22;27912;51.828;5.688;2022-11-20T01:58:28;-4.00;99.90
42245;DHT22;27912;51.828;5.688;2022-11-20T02:00:55;-4.10;99.90
42245;DHT22;27912;51.828;5.688;2022-11-20T02:03:21;-4.00;99.90
42245;DHT22;27912;51.828;5.688;2022-11-20T02:08:47;-4.00;99.90
42245;DHT22;27912;51.828;5.688;2022-11-20T02:11:13;-4.10;99.90
42245;DHT22;27912;51.828;5.688;2022-11-20T02:13:42;-4.10;99.90
42245;DHT22;27912;51.828;5.688;2022-11-20T02:16:19;-4.10;99.90
42245;DHT22;27912;51.828;5.688;2022-11-20T02:18:46;-4.10;99.90
42245;DHT22;27912;51.828;5.688;2022-11-20T02:21:49;-4.10;99.90
42245;DHT22;27912;51.828;5.688;2022-11-20T02:24:19;-4.10;99.90
42245;DHT22;27912;51.828;5.688;2022-11-20T02:26:53;-4.10;99.90
42245;DHT22;27912;51.828;5.688;2022-11-20T02:29:31;-4.10;99.90
42245;DHT22;27912;51.828;5.688;2022-11-20T02:31:59;-4.10;99.90
42245;DHT22;27912;51.828;5.688;2022-11-20T02:34:26;-4.20;99.90
42245;DHT22;27912;51.828;5.688;2022-11-20T02:36:53;-4.20;99.90
42245;DHT22;27912;51.828;5.688;2022-11-20T02:39:24;-4.20;99.90
42245;DHT22;27912;51.828;5.688;2022-11-20T02:41:55;-4.30;99.90
42245;DHT22;27912;51.828;5.688;2022-11-20T02:44:21;-4.30;99.90
42245;DHT22;27912;51.828;5.688;2022-11-20T02:46:50;-4.30;99.90
42245;DHT22;27912;51.828;5.688;2022-11-20T02:49:16;-4.30;99.90
42245;DHT22;27912;51.828;5.688;2022-11-20T02:51:45;-4.30;99.90
42245;DHT22;27912;51.828;5.688;2022-11-20T02:54:11;-4.20;99.90
42245;DHT22;27912;51.828;5.688;2022-11-20T02:56:38;-4.10;99.90
42245;DHT22;27912;51.828;5.688;2022-11-20T02:59:14;-4.20;99.90
42245;DHT22;27912;51.828;5.688;2022-11-20T03:01:39;-4.10;99.90
42245;DHT22;27912;51.828;5.688;2022-11-20T03:04:08;-4.20;99.90
42245;DHT22;27912;51.828;5.688;2022-11-20T03:06:35;-4.20;99.90
42245;DHT22;27912;51.828;5.688;2022-11-20T03:09:04;-4.30;99.90
42245;DHT22;27912;51.828;5.688;2022-11-20T03:11:40;-4.30;99.90
42245;DHT22;27912;51.828;5.688;2022-11-20T03:14:06;-4.30;99.90
42245;DHT22;27912;51.828;5.688;2022-11-20T03:16:37;-4.40;99.90
42245;DHT22;27912;51.828;5.688;2022-11-20T03:19:03;-4.40;99.90
42245;DHT22;27912;51.828;5.688;2022-11-20T03:21:29;-4.40;99.90
42245;DHT22;27912;51.828;5.688;2022-11-20T03:24:02;-4.40;99.90
42245;DHT22;27912;51.828;5.688;2022-11-20T03:26:28;-4.40;99.90
42245;DHT22;27912;51.828;5.688;2022-11-20T03:28:56;-4.40;99.90
42245;DHT22;27912;51.828;5.688;2022-11-20T03:31:32;-4.40;99.90
42245;DHT22;27912;51.828;5.688;2022-11-20T03:33:59;-4.40;99.90
42245;DHT22;27912;51.828;5.688;2022-11-20T03:36:26;-4.40;99.90
42245;DHT22;27912;51.828;5.688;2022-11-20T03:38:56;-4.40;99.90
42245;DHT22;27912;51.828;5.688;2022-11-20T03:41:25;-4.50;99.90
42245;DHT22;27912;51.828;5.688;2022-11-20T03:44:00;-4.50;99.90
42245;DHT22;27912;51.828;5.688;2022-11-20T03:46:27;-4.50;99.90
42245;DHT22;27912;51.828;5.688;2022-11-20T03:48:54;-4.50;99.90
42245;DHT22;27912;51.828;5.688;2022-11-20T03:51:25;-4.50;99.90
42245;DHT22;27912;51.828;5.688;2022-11-20T03:53:54;-4.50;99.90
42245;DHT22;27912;51.828;5.688;2022-11-20T03:56:25;-4.50;99.90
42245;DHT22;27912;51.828;5.688;2022-11-20T03:58:52;-4.50;99.90
42245;DHT22;27912;51.828;5.688;2022-11-20T04:01:38;-4.50;99.90
42245;DHT22;27912;51.828;5.688;2022-11-20T04:04:06;-4.60;99.90
42245;DHT22;27912;51.828;5.688;2022-11-20T04:06:46;-4.60;99.90
42245;DHT22;27912;51.828;5.688;2022-11-20T04:09:13;-4.70;99.90
42245;DHT22;27912;51.828;5.688;2022-11-20T04:11:41;-4.70;99.90
42245;DHT22;27912;51.828;5.688;2022-11-20T04:14:13;-4.70;99.90
42245;DHT22;27912;51.828;5.688;2022-11-20T04:16:42;-4.70;99.90
42245;DHT22;27912;51.828;5.688;2022-11-20T04:19:13;-4.70;99.90
42245;DHT22;27912;51.828;5.688;2022-11-20T04:21:39;-4.60;99.90
42245;DHT22;27912;51.828;5.688;2022-11-20T04:24:06;-4.70;99.90
42245;DHT22;27912;51.828;5.688;2022-11-20T04:26:36;-4.70;99.90
42245;DHT22;27912;51.828;5.688;2022-11-20T04:29:02;-4.80;99.90
42245;DHT22;27912;51.828;5.688;2022-11-20T04:31:30;-4.80;99.90
42245;DHT22;27912;51.828;5.688;2022-11-20T04:34:00;-4.80;99.90
42245;DHT22;27912;51.828;5.688;2022-11-20T04:36:29;-4.80;99.90
42245;DHT22;27912;51.828;5.688;2022-11-20T04:38:57;-4.80;99.90
42245;DHT22;27912;51.828;5.688;2022-11-20T04:41:33;-4.80;99.90
42245;DHT22;27912;51.828;5.688;2022-11-20T04:44:03;-4.80;99.90
42245;DHT22;27912;51.828;5.688;2022-11-20T04:46:36;-4.80;99.90
42245;DHT22;27912;51.828;5.688;2022-11-20T04:49:02;-4.90;99.90
42245;DHT22;27912;51.828;5.688;2022-11-20T04:51:28;-4.90;99.90
42245;DHT22;27912;51.828;5.688;2022-11-20T04:53:54;-4.80;99.90
42245;DHT22;27912;51.828;5.688;2022-11-20T04:56:20;-4.80;99.90
42245;DHT22;27912;51.828;5.688;2022-11-20T04:58:47;-4.80;99.90
42245;DHT22;27912;51.828;5.688;2022-11-20T05:01:14;-4.80;99.90
42245;DHT22;27912;51.828;5.688;2022-11-20T05:03:42;-4.80;99.90
42245;DHT22;27912;51.828;5.688;2022-11-20T05:06:10;-4.90;99.90
42245;DHT22;27912;51.828;5.688;2022-11-20T05:08:37;-4.90;99.90
42245;DHT22;27912;51.828;5.688;2022-11-20T05:11:10;-5.00;99.90
42245;DHT22;27912;51.828;5.688;2022-11-20T05:13:36;-5.00;99.90
42245;DHT22;27912;51.828;5.688;2022-11-20T05:16:07;-5.00;99.90
42245;DHT22;27912;51.828;5.688;2022-11-20T05:18:35;-5.00;99.90
42245;DHT22;27912;51.828;5.688;2022-11-20T05:21:01;-5.00;99.90
42245;DHT22;27912;51.828;5.688;2022-11-20T05:23:28;-5.00;99.90
42245;DHT22;27912;51.828;5.688;2022-11-20T05:25:55;-4.90;99.90
42245;DHT22;27912;51.828;5.688;2022-11-20T05:28:22;-4.90;99.90
42245;DHT22;27912;51.828;5.688;2022-11-20T05:30:48;-4.90;99.90
42245;DHT22;27912;51.828;5.688;2022-11-20T05:33:15;-4.90;99.90
42245;DHT22;27912;51.828;5.688;2022-11-20T05:35:41;-4.90;99.90
42245;DHT22;27912;51.828;5.688;2022-11-20T05:38:10;-4.80;99.90
42245;DHT22;27912;51.828;5.688;2022-11-20T05:40:36;-4.80;99.90
42245;DHT22;27912;51.828;5.688;2022-11-20T05:43:02;-4.80;99.90
42245;DHT22;27912;51.828;5.688;2022-11-20T05:45:28;-4.80;99.90
42245;DHT22;27912;51.828;5.688;2022-11-20T05:47:58;-4.80;99.90
42245;DHT22;27912;51.828;5.688;2022-11-20T05:50:24;-4.90;99.90
42245;DHT22;27912;51.828;5.688;2022-11-20T05:52:50;-4.90;99.90
42245;DHT22;27912;51.828;5.688;2022-11-20T05:55:16;-4.90;99.90
42245;DHT22;27912;51.828;5.688;2022-11-20T05:57:42;-4.90;99.90
42245;DHT22;27912;51.828;5.688;2022-11-20T06:00:11;-4.90;99.90
42245;DHT22;27912;51.828;5.688;2022-11-20T06:02:37;-5.00;99.90
42245;DHT22;27912;51.828;5.688;2022-11-20T06:05:06;-5.10;99.90
42245;DHT22;27912;51.828;5.688;2022-11-20T06:07:32;-5.10;99.90
42245;DHT22;27912;51.828;5.688;2022-11-20T06:09:58;-5.10;99.90
42245;DHT22;27912;51.828;5.688;2022-11-20T06:12:24;-5.20;99.90
42245;DHT22;27912;51.828;5.688;2022-11-20T06:14:52;-5.20;99.90
42245;DHT22;27912;51.828;5.688;2022-11-20T06:17:18;-5.20;99.90
42245;DHT22;27912;51.828;5.688;2022-11-20T06:19:44;-5.20;99.90
42245;DHT22;27912;51.828;5.688;2022-11-20T06:22:10;-5.10;99.90
42245;DHT22;27912;51.828;5.688;2022-11-20T06:24:36;-5.20;99.90
42245;DHT22;27912;51.828;5.688;2022-11-20T06:27:02;-5.10;99.90
42245;DHT22;27912;51.828;5.688;2022-11-20T06:29:28;-5.10;99.90
42245;DHT22;27912;51.828;5.688;2022-11-20T06:31:54;-5.00;99.90
42245;DHT22;27912;51.828;5.688;2022-11-20T06:34:23;-5.00;99.90
42245;DHT22;27912;51.828;5.688;2022-11-20T06:36:48;-4.90;99.90
42245;DHT22;27912;51.828;5.688;2022-11-20T06:39:14;-4.90;99.90
42245;DHT22;27912;51.828;5.688;2022-11-20T06:41:39;-4.90;99.90
42245;DHT22;27912;51.828;5.688;2022-11-20T06:44:05;-4.80;99.90
42245;DHT22;27912;51.828;5.688;2022-11-20T06:46:31;-4.80;99.90
42245;DHT22;27912;51.828;5.688;2022-11-20T06:48:57;-4.80;99.90
42245;DHT22;27912;51.828;5.688;2022-11-20T06:51:23;-4.80;99.90
42245;DHT22;27912;51.828;5.688;2022-11-20T06:53:49;-4.80;99.90
42245;DHT22;27912;51.828;5.688;2022-11-20T06:56:14;-4.80;99.90
42245;DHT22;27912;51.828;5.688;2022-11-20T06:58:40;-4.80;99.90
42245;DHT22;27912;51.828;5.688;2022-11-20T07:01:09;-4.90;99.90
42245;DHT22;27912;51.828;5.688;2022-11-20T07:03:35;-4.90;99.90
42245;DHT22;27912;51.828;5.688;2022-11-20T07:06:01;-4.90;99.90
42245;DHT22;27912;51.828;5.688;2022-11-20T07:08:27;-4.90;99.90
42245;DHT22;27912;51.828;5.688;2022-11-20T07:11:00;-4.90;99.90
42245;DHT22;27912;51.828;5.688;2022-11-20T07:13:27;-4.80;99.90
42245;DHT22;27912;51.828;5.688;2022-11-20T07:15:53;-4.80;99.90
42245;DHT22;27912;51.828;5.688;2022-11-20T07:18:19;-4.70;99.90
42245;DHT22;27912;51.828;5.688;2022-11-20T07:20:44;-4.70;99.90
42245;DHT22;27912;51.828;5.688;2022-11-20T07:23:10;-4.60;99.90
42245;DHT22;27912;51.828;5.688;2022-11-20T07:25:35;-4.60;99.90
42245;DHT22;27912;51.828;5.688;2022-11-20T07:28:01;-4.60;99.90
42245;DHT22;27912;51.828;5.688;2022-11-20T07:30:27;-4.50;99.90
42245;DHT22;27912;51.828;5.688;2022-11-20T07:32:54;-4.50;99.90
42245;DHT22;27912;51.828;5.688;2022-11-20T07:35:21;-4.50;99.90
42245;DHT22;27912;51.828;5.688;2022-11-20T07:37:47;-4.50;99.90
42245;DHT22;27912;51.828;5.688;2022-11-20T07:40:14;-4.40;99.90
42245;DHT22;27912;51.828;5.688;2022-11-20T07:42:50;-4.40;99.90
42245;DHT22;27912;51.828;5.688;2022-11-20T07:45:17;-4.30;99.90
42245;DHT22;27912;51.828;5.688;2022-11-20T07:47:43;-4.30;99.90
42245;DHT22;27912;51.828;5.688;2022-11-20T07:50:08;-4.20;99.90
42245;DHT22;27912;51.828;5.688;2022-11-20T07:52:34;-4.10;99.90
42245;DHT22;27912;51.828;5.688;2022-11-20T07:55:00;-4.10;99.90
42245;DHT22;27912;51.828;5.688;2022-11-20T07:57:25;-4.00;99.90
42245;DHT22;27912;51.828;5.688;2022-11-20T07:59:51;-3.90;99.90
42245;DHT22;27912;51.828;5.688;2022-11-20T08:02:16;-3.80;99.90
42245;DHT22;27912;51.828;5.688;2022-11-20T08:04:42;-3.70;99.90
42245;DHT22;27912;51.828;5.688;2022-11-20T08:07:07;-3.60;99.90
42245;DHT22;27912;51.828;5.688;2022-11-20T08:09:33;-3.50;99.90
42245;DHT22;27912;51.828;5.688;2022-11-20T08:11:58;-3.30;99.90
42245;DHT22;27912;51.828;5.688;2022-11-20T08:14:43;-3.20;99.90
42245;DHT22;27912;51.828;5.688;2022-11-20T08:17:08;-3.10;99.90
42245;DHT22;27912;51.828;5.688;2022-11-20T08:19:34;-3.00;99.90
42245;DHT22;27912;51.828;5.688;2022-11-20T08:21:59;-2.80;99.90
42245;DHT22;27912;51.828;5.688;2022-11-20T08:24:25;-2.70;99.90
42245;DHT22;27912;51.828;5.688;2022-11-20T08:26:51;-2.60;99.90
42245;DHT22;27912;51.828;5.688;2022-11-20T08:29:17;-2.50;99.90
42245;DHT22;27912;51.828;5.688;2022-11-20T08:31:43;-2.30;99.90
42245;DHT22;27912;51.828;5.688;2022-11-20T08:34:09;-2.10;99.90
42245;DHT22;27912;51.828;5.688;2022-11-20T08:36:35;-2.00;99.90
42245;DHT22;27912;51.828;5.688;2022-11-20T08:39:01;-1.80;99.90
42245;DHT22;27912;51.828;5.688;2022-11-20T08:41:26;-1.70;99.90
42245;DHT22;27912;51.828;5.688;2022-11-20T08:43:53;-1.60;99.90
42245;DHT22;27912;51.828;5.688;2022-11-20T08:46:19;-1.50;99.90
42245;DHT22;27912;51.828;5.688;2022-11-20T08:48:45;-1.40;99.90
42245;DHT22;27912;51.828;5.688;2022-11-20T08:51:11;-1.30;99.90
42245;DHT22;27912;51.828;5.688;2022-11-20T08:53:38;-1.20;99.90
42245;DHT22;27912;51.828;5.688;2022-11-20T08:56:04;-1.10;99.90
42245;DHT22;27912;51.828;5.688;2022-11-20T08:58:29;-0.90;99.90
42245;DHT22;27912;51.828;5.688;2022-11-20T09:00:55;-0.90;99.90
42245;DHT22;27912;51.828;5.688;2022-11-20T09:03:21;-0.80;99.90
42245;DHT22;27912;51.828;5.688;2022-11-20T09:05:47;-0.70;99.90
42245;DHT22;27912;51.828;5.688;2022-11-20T09:08:13;-0.60;99.90
42245;DHT22;27912;51.828;5.688;2022-11-20T09:10:38;-0.60;99.90
42245;DHT22;27912;51.828;5.688;2022-11-20T09:13:07;-0.50;99.90
42245;DHT22;27912;51.828;5.688;2022-11-20T09:15:33;-0.40;99.90
42245;DHT22;27912;51.828;5.688;2022-11-20T09:18:01;-0.40;99.90
42245;DHT22;27912;51.828;5.688;2022-11-20T09:20:28;-0.30;99.90
42245;DHT22;27912;51.828;5.688;2022-11-20T09:22:55;-0.20;99.90
42245;DHT22;27912;51.828;5.688;2022-11-20T09:25:21;-0.20;99.90
42245;DHT22;27912;51.828;5.688;2022-11-20T09:27:47;-0.10;99.90
42245;DHT22;27912;51.828;5.688;2022-11-20T09:30:14;0.00;99.90
42245;DHT22;27912;51.828;5.688;2022-11-20T09:32:40;0.00;99.90
42245;DHT22;27912;51.828;5.688;2022-11-20T09:35:05;0.10;99.90
42245;DHT22;27912;51.828;5.688;2022-11-20T09:37:31;0.20;99.90
42245;DHT22;27912;51.828;5.688;2022-11-20T09:39:57;0.20;99.90
42245;DHT22;27912;51.828;5.688;2022-11-20T09:45:05;0.40;99.90
42245;DHT22;27912;51.828;5.688;2022-11-20T09:48:03;0.50;99.90
42245;DHT22;27912;51.828;5.688;2022-11-20T09:50:52;0.50;99.90
42245;DHT22;27912;51.828;5.688;2022-11-20T09:53:45;0.60;99.90
42245;DHT22;27912;51.828;5.688;2022-11-20T09:56:17;0.60;99.90
42245;DHT22;27912;51.828;5.688;2022-11-20T09:58:52;0.70;99.90
42245;DHT22;27912;51.828;5.688;2022-11-20T10:01:21;0.70;99.90
42245;DHT22;27912;51.828;5.688;2022-11-20T10:06:50;0.90;99.90
42245;DHT22;27912;51.828;5.688;2022-11-20T10:09:37;1.00;99.90
42245;DHT22;27912;51.828;5.688;2022-11-20T10:12:22;1.10;99.90
42245;DHT22;27912;51.828;5.688;2022-11-20T10:15:17;1.20;99.90
42245;DHT22;27912;51.828;5.688;2022-11-20T10:20:36;1.30;99.90
42245;DHT22;27912;51.828;5.688;2022-11-20T10:23:30;1.30;99.90
42245;DHT22;27912;51.828;5.688;2022-11-20T10:26:13;1.40;99.90
42245;DHT22;27912;51.828;5.688;2022-11-20T10:29:12;1.40;99.90
42245;DHT22;27912;51.828;5.688;2022-11-20T10:31:56;1.50;99.90
42245;DHT22;27912;51.828;5.688;2022-11-20T10:35:01;1.60;99.90
42245;DHT22;27912;51.828;5.688;2022-11-20T10:37:31;1.60;99.90
42245;DHT22;27912;51.828;5.688;2022-11-20T10:40:01;1.70;99.90
42245;DHT22;27912;51.828;5.688;2022-11-20T10:42:43;1.70;99.90
42245;DHT22;27912;51.828;5.688;2022-11-20T10:47:52;1.90;99.90
42245;DHT22;27912;51.828;5.688;2022-11-20T10:50:21;2.00;99.90
42245;DHT22;27912;51.828;5.688;2022-11-20T10:53:05;2.00;99.90
42245;DHT22;27912;51.828;5.688;2022-11-20T10:55:44;2.10;99.90
42245;DHT22;27912;51.828;5.688;2022-11-20T11:01:17;2.20;99.90
42245;DHT22;27912;51.828;5.688;2022-11-20T11:03:43;2.20;99.90
42245;DHT22;27912;51.828;5.688;2022-11-20T11:09:04;2.40;99.90
42245;DHT22;27912;51.828;5.688;2022-11-20T11:11:33;2.40;99.90
42245;DHT22;27912;51.828;5.688;2022-11-20T11:14:13;2.40;99.90
42245;DHT22;27912;51.828;5.688;2022-11-20T11:16:56;2.50;99.90
42245;DHT22;27912;51.828;5.688;2022-11-20T11:19:25;2.50;99.90
42245;DHT22;27912;51.828;5.688;2022-11-20T11:21:55;2.60;99.90
42245;DHT22;27912;51.828;5.688;2022-11-20T11:24:27;2.60;99.90
42245;DHT22;27912;51.828;5.688;2022-11-20T11:26:59;2.60;99.90
42245;DHT22;27912;51.828;5.688;2022-11-20T11:29:25;2.70;99.90
42245;DHT22;27912;51.828;5.688;2022-11-20T11:32:07;2.80;99.90
42245;DHT22;27912;51.828;5.688;2022-11-20T11:34:33;2.80;99.90
42245;DHT22;27912;51.828;5.688;2022-11-20T11:36:59;2.90;99.90
42245;DHT22;27912;51.828;5.688;2022-11-20T11:39:27;2.90;99.90
42245;DHT22;27912;51.828;5.688;2022-11-20T11:41:54;2.90;99.90
42245;DHT22;27912;51.828;5.688;2022-11-20T11:44:27;2.90;99.90
42245;DHT22;27912;51.828;5.688;2022-11-20T11:47:25;3.00;99.90
42245;DHT22;27912;51.828;5.688;2022-11-20T11:52:53;3.10;99.90
42245;DHT22;27912;51.828;5.688;2022-11-20T12:01:01;3.20;99.90
42245;DHT22;27912;51.828;5.688;2022-11-20T12:03:35;3.20;99.90
42245;DHT22;27912;51.828;5.688;2022-11-20T12:06:05;3.10;99.90
42245;DHT22;27912;51.828;5.688;2022-11-20T12:08:45;3.10;99.90
42245;DHT22;27912;51.828;5.688;2022-11-20T12:11:20;3.10;99.90
42245;DHT22;27912;51.828;5.688;2022-11-20T12:16:33;3.10;99.90
42245;DHT22;27912;51.828;5.688;2022-11-20T12:18:59;3.20;99.90
42245;DHT22;27912;51.828;5.688;2022-11-20T12:37:37;3.40;99.90
42245;DHT22;27912;51.828;5.688;2022-11-20T12:45:53;3.40;99.90
42245;DHT22;27912;51.828;5.688;2022-11-20T12:51:45;3.30;99.90
42245;DHT22;27912;51.828;5.688;2022-11-20T13:02:22;3.30;99.90
42245;DHT22;27912;51.828;5.688;2022-11-20T13:05:11;3.20;99.90
42245;DHT22;27912;51.828;5.688;2022-11-20T13:07:38;3.30;99.90
42245;DHT22;27912;51.828;5.688;2022-11-20T13:10:37;3.30;99.90
42245;DHT22;27912;51.828;5.688;2022-11-20T13:13:23;3.30;99.90
42245;DHT22;27912;51.828;5.688;2022-11-20T13:16:05;3.30;99.90
42245;DHT22;27912;51.828;5.688;2022-11-20T13:18:39;3.30;99.90
42245;DHT22;27912;51.828;5.688;2022-11-20T13:21:35;3.20;99.90
42245;DHT22;27912;51.828;5.688;2022-11-20T13:24:20;3.20;99.90
42245;DHT22;27912;51.828;5.688;2022-11-20T13:29:31;3.30;99.90
42245;DHT22;27912;51.828;5.688;2022-11-20T13:32:07;3.30;99.90
42245;DHT22;27912;51.828;5.688;2022-11-20T13:34:39;3.30;99.90
42245;DHT22;27912;51.828;5.688;2022-11-20T13:37:05;3.40;99.90
42245;DHT22;27912;51.828;5.688;2022-11-20T13:39:33;3.40;99.90
42245;DHT22;27912;51.828;5.688;2022-11-20T13:42:01;3.40;99.90
42245;DHT22;27912;51.828;5.688;2022-11-20T13:44:38;3.40;99.90
42245;DHT22;27912;51.828;5.688;2022-11-20T13:47:26;3.40;99.90
42245;DHT22;27912;51.828;5.688;2022-11-20T13:49:53;3.40;99.90
42245;DHT22;27912;51.828;5.688;2022-11-20T13:55:45;3.40;99.90
42245;DHT22;27912;51.828;5.688;2022-11-20T14:01:24;3.40;99.90
42245;DHT22;27912;51.828;5.688;2022-11-20T14:03:52;3.30;99.90
42245;DHT22;27912;51.828;5.688;2022-11-20T14:06:30;3.40;99.90
42245;DHT22;27912;51.828;5.688;2022-11-20T14:08:57;3.40;99.90
42245;DHT22;27912;51.828;5.688;2022-11-20T14:11:29;3.40;99.90
42245;DHT22;27912;51.828;5.688;2022-11-20T14:14:03;3.40;99.90
42245;DHT22;27912;51.828;5.688;2022-11-20T14:16:32;3.40;99.90
42245;DHT22;27912;51.828;5.688;2022-11-20T14:19:25;3.40;99.90
42245;DHT22;27912;51.828;5.688;2022-11-20T14:21:54;3.30;99.90
42245;DHT22;27912;51.828;5.688;2022-11-20T14:24:22;3.30;99.90
42245;DHT22;27912;51.828;5.688;2022-11-20T14:26:48;3.30;99.90
42245;DHT22;27912;51.828;5.688;2022-11-20T14:29:17;3.30;99.90
42245;DHT22;27912;51.828;5.688;2022-11-20T14:31:44;3.30;99.90
42245;DHT22;27912;51.828;5.688;2022-11-20T14:34:28;3.30;99.90
42245;DHT22;27912;51.828;5.688;2022-11-20T14:37:04;3.40;99.90
42245;DHT22;27912;51.828;5.688;2022-11-20T14:39:36;3.40;99.90
42245;DHT22;27912;51.828;5.688;2022-11-20T14:42:11;3.40;99.90
42245;DHT22;27912;51.828;5.688;2022-11-20T14:44:40;3.40;99.90
42245;DHT22;27912;51.828;5.688;2022-11-20T14:47:08;3.40;99.90
42245;DHT22;27912;51.828;5.688;2022-11-20T14:49:37;3.40;99.90
42245;DHT22;27912;51.828;5.688;2022-11-20T14:52:13;3.50;99.90
42245;DHT22;27912;51.828;5.688;2022-11-20T14:54:47;3.50;99.90
42245;DHT22;27912;51.828;5.688;2022-11-20T15:02:34;3.50;99.90
42245;DHT22;27912;51.828;5.688;2022-11-20T15:05:01;3.50;99.90
42245;DHT22;27912;51.828;5.688;2022-11-20T15:07:38;3.50;99.90
42245;DHT22;27912;51.828;5.688;2022-11-20T15:10:06;3.50;99.90
42245;DHT22;27912;51.828;5.688;2022-11-20T15:12:34;3.50;99.90
42245;DHT22;27912;51.828;5.688;2022-11-20T15:15:01;3.50;99.90
42245;DHT22;27912;51.828;5.688;2022-11-20T15:17:28;3.60;99.90
42245;DHT22;27912;51.828;5.688;2022-11-20T15:19:55;3.50;99.90
42245;DHT22;27912;51.828;5.688;2022-11-20T15:22:21;3.60;99.90
42245;DHT22;27912;51.828;5.688;2022-11-20T15:24:46;3.50;99.90
42245;DHT22;27912;51.828;5.688;2022-11-20T15:27:12;3.60;99.90
42245;DHT22;27912;51.828;5.688;2022-11-20T15:29:38;3.50;99.90
42245;DHT22;27912;51.828;5.688;2022-11-20T15:32:04;3.60;99.90
42245;DHT22;27912;51.828;5.688;2022-11-20T15:34:30;3.60;99.90
42245;DHT22;27912;51.828;5.688;2022-11-20T15:36:55;3.60;99.90
42245;DHT22;27912;51.828;5.688;2022-11-20T15:39:21;3.60;99.90
42245;DHT22;27912;51.828;5.688;2022-11-20T15:41:46;3.60;99.90
42245;DHT22;27912;51.828;5.688;2022-11-20T15:44:12;3.60;99.90
42245;DHT22;27912;51.828;5.688;2022-11-20T15:46:42;3.60;99.90
42245;DHT22;27912;51.828;5.688;2022-11-20T15:49:13;3.60;99.90
42245;DHT22;27912;51.828;5.688;2022-11-20T15:51:44;3.60;99.90
42245;DHT22;27912;51.828;5.688;2022-11-20T15:54:16;3.60;99.90
42245;DHT22;27912;51.828;5.688;2022-11-20T15:56:46;3.60;99.90
42245;DHT22;27912;51.828;5.688;2022-11-20T15:59:12;3.60;99.90
42245;DHT22;27912;51.828;5.688;2022-11-20T16:01:41;3.60;99.90
42245;DHT22;27912;51.828;5.688;2022-11-20T16:04:12;3.60;99.90
42245;DHT22;27912;51.828;5.688;2022-11-20T16:06:38;3.70;99.90
42245;DHT22;27912;51.828;5.688;2022-11-20T16:09:04;3.70;99.90
42245;DHT22;27912;51.828;5.688;2022-11-20T16:11:29;3.70;99.90
42245;DHT22;27912;51.828;5.688;2022-11-20T16:13:55;3.70;99.90
42245;DHT22;27912;51.828;5.688;2022-11-20T16:16:40;3.80;99.90
42245;DHT22;27912;51.828;5.688;2022-11-20T16:19:11;3.80;99.90
42245;DHT22;27912;51.828;5.688;2022-11-20T16:21:37;3.80;99.90
42245;DHT22;27912;51.828;5.688;2022-11-20T16:24:09;3.80;99.90
42245;DHT22;27912;51.828;5.688;2022-11-20T16:26:36;3.90;99.90
42245;DHT22;27912;51.828;5.688;2022-11-20T16:29:04;3.80;99.90
42245;DHT22;27912;51.828;5.688;2022-11-20T16:31:31;3.90;99.90
42245;DHT22;27912;51.828;5.688;2022-11-20T16:33:59;3.90;99.90
42245;DHT22;27912;51.828;5.688;2022-11-20T16:36:26;3.90;99.90
42245;DHT22;27912;51.828;5.688;2022-11-20T16:38:54;3.90;99.90
42245;DHT22;27912;51.828;5.688;2022-11-20T16:41:24;3.90;99.90
42245;DHT22;27912;51.828;5.688;2022-11-20T16:43:58;3.90;99.90
42245;DHT22;27912;51.828;5.688;2022-11-20T16:46:27;4.00;99.90
42245;DHT22;27912;51.828;5.688;2022-11-20T16:49:00;4.00;99.90
42245;DHT22;27912;51.828;5.688;2022-11-20T16:51:28;4.00;99.90
42245;DHT22;27912;51.828;5.688;2022-11-20T16:53:55;4.00;99.90
42245;DHT22;27912;51.828;5.688;2022-11-20T16:56:24;4.00;99.90
42245;DHT22;27912;51.828;5.688;2022-11-20T16:58:54;4.00;99.90
42245;DHT22;27912;51.828;5.688;2022-11-20T17:01:24;4.10;99.90
42245;DHT22;27912;51.828;5.688;2022-11-20T17:03:59;4.00;99.90
42245;DHT22;27912;51.828;5.688;2022-11-20T17:06:28;4.10;99.90
42245;DHT22;27912;51.828;5.688;2022-11-20T17:08:55;4.10;99.90
42245;DHT22;27912;51.828;5.688;2022-11-20T17:11:25;4.10;99.90
42245;DHT22;27912;51.828;5.688;2022-11-20T17:13:51;4.20;99.90